createdAt,value
2023-05-11T00:00:20.464Z,1010.05
2023-05-11T00:01:20.338Z,1010.06
2023-05-11T00:02:20.373Z,1010.03
2023-05-11T00:03:20.500Z,1010.07
2023-05-11T00:04:20.480Z,1010.04
2023-05-11T00:05:20.314Z,1010.05
2023-05-11T00:06:20.309Z,1010.05
2023-05-11T00:07:20.304Z,1010.04
2023-05-11T00:08:20.301Z,1010.07
2023-05-11T00:09:20.297Z,1010.03
2023-05-11T00:10:20.431Z,1009.99
2023-05-11T00:11:20.279Z,1010.00
2023-05-11T00:12:20.276Z,1009.98
2023-05-11T00:13:20.268Z,1010.00
2023-05-11T00:14:20.262Z,1010.01
2023-05-11T00:15:20.256Z,1009.98
2023-05-11T00:16:20.307Z,1009.97
2023-05-11T00:17:20.248Z,1010.00
2023-05-11T00:18:20.267Z,1009.97
2023-05-11T00:19:20.241Z,1009.99
2023-05-11T00:20:20.330Z,1009.99
2023-05-11T00:21:20.236Z,1009.97
2023-05-11T00:22:20.219Z,1009.98
2023-05-11T00:23:20.221Z,1009.98
2023-05-11T00:24:20.201Z,1009.99
2023-05-11T00:25:20.194Z,1010.01
2023-05-11T00:26:20.189Z,1010.02
2023-05-11T00:27:20.180Z,1010.03
2023-05-11T00:28:20.178Z,1010.02
2023-05-11T00:29:20.168Z,1010.03
2023-05-11T00:30:20.493Z,1009.98
2023-05-11T00:31:20.186Z,1009.98
2023-05-11T00:32:20.180Z,1009.96
2023-05-11T00:33:20.145Z,1009.96
2023-05-11T00:34:20.138Z,1009.96
2023-05-11T00:35:20.130Z,1009.97
2023-05-11T00:36:20.127Z,1009.99
2023-05-11T00:37:20.118Z,1009.94
2023-05-11T00:38:20.140Z,1009.91
2023-05-11T00:39:20.107Z,1009.95
2023-05-11T00:40:20.294Z,1009.94
2023-05-11T00:41:20.103Z,1009.90
2023-05-11T00:42:20.084Z,1009.91
2023-05-11T00:43:20.080Z,1009.91
2023-05-11T00:44:20.073Z,1009.91
2023-05-11T00:45:20.112Z,1009.89
2023-05-11T00:46:20.102Z,1009.90
2023-05-11T00:47:20.061Z,1009.88
2023-05-11T00:48:20.049Z,1009.90
2023-05-11T00:49:20.040Z,1009.92
2023-05-11T00:50:20.146Z,1009.88
2023-05-11T00:51:20.027Z,1009.90
2023-05-11T00:52:20.021Z,1009.92
2023-05-11T00:53:20.022Z,1009.96
2023-05-11T00:54:20.013Z,1009.92
2023-05-11T00:55:19.999Z,1009.95
2023-05-11T00:56:20.002Z,1009.98
2023-05-11T00:57:19.986Z,1009.97
2023-05-11T00:58:19.980Z,1009.93
2023-05-11T00:59:19.977Z,1009.97
2023-05-11T01:00:20.239Z,1009.99
2023-05-11T01:01:19.994Z,1009.96
2023-05-11T01:02:20.020Z,1009.97
2023-05-11T01:03:19.976Z,1010.00
2023-05-11T01:04:19.947Z,1010.02
2023-05-11T01:05:19.940Z,1009.99
2023-05-11T01:06:19.926Z,1009.99
2023-05-11T01:07:19.928Z,1009.96
2023-05-11T01:08:19.918Z,1010.00
2023-05-11T01:09:19.914Z,1010.01
2023-05-11T01:10:20.054Z,1010.01
2023-05-11T01:11:19.946Z,1010.01
2023-05-11T01:12:19.900Z,1010.02
2023-05-11T01:13:19.888Z,1010.04
2023-05-11T01:14:19.881Z,1010.06
2023-05-11T01:15:19.882Z,1010.04
2023-05-11T01:16:19.937Z,1010.03
2023-05-11T01:17:19.913Z,1010.05
2023-05-11T01:18:19.870Z,1010.05
2023-05-11T01:19:19.849Z,1010.07
2023-05-11T01:20:20.076Z,1010.05
2023-05-11T01:21:19.851Z,1010.06
2023-05-11T01:22:19.834Z,1010.03
2023-05-11T01:23:19.824Z,1010.07
2023-05-11T01:24:19.814Z,1010.06
2023-05-11T01:25:19.810Z,1010.10
2023-05-11T01:26:19.805Z,1010.06
2023-05-11T01:27:19.793Z,1010.07
2023-05-11T01:28:19.786Z,1010.05
2023-05-11T01:29:19.777Z,1010.06
2023-05-11T01:30:19.924Z,1010.06
2023-05-11T01:31:19.790Z,1010.09
2023-05-11T01:32:19.760Z,1010.09
2023-05-11T01:33:19.807Z,1010.10
2023-05-11T01:34:19.744Z,1010.10
2023-05-11T01:35:19.742Z,1010.08
2023-05-11T01:36:19.760Z,1010.09
2023-05-11T01:37:19.728Z,1010.06
2023-05-11T01:38:19.715Z,1010.08
2023-05-11T01:39:19.710Z,1010.06
2023-05-11T01:40:19.926Z,1010.07
2023-05-11T01:41:19.696Z,1010.04
2023-05-11T01:42:19.681Z,1010.07
2023-05-11T01:43:19.676Z,1010.08
2023-05-11T01:44:19.677Z,1010.08
2023-05-11T01:45:19.672Z,1010.09
2023-05-11T01:46:19.712Z,1010.07
2023-05-11T01:47:19.652Z,1010.09
2023-05-11T01:48:19.646Z,1010.11
2023-05-11T01:49:19.653Z,1010.14
2023-05-11T01:50:19.857Z,1010.12
2023-05-11T01:51:19.625Z,1010.13
2023-05-11T01:52:19.621Z,1010.15
2023-05-11T01:53:19.619Z,1010.14
2023-05-11T01:54:19.612Z,1010.16
2023-05-11T01:55:19.607Z,1010.19
2023-05-11T01:56:19.585Z,1010.20
2023-05-11T01:57:19.594Z,1010.19
2023-05-11T01:58:19.571Z,1010.21
2023-05-11T01:59:19.565Z,1010.24
2023-05-11T02:00:19.729Z,1010.23
2023-05-11T02:01:19.613Z,1010.22
2023-05-11T02:02:19.579Z,1010.23
2023-05-11T02:03:19.687Z,1010.24
2023-05-11T02:04:19.536Z,1010.25
2023-05-11T02:05:19.536Z,1010.30
2023-05-11T02:06:19.521Z,1010.31
2023-05-11T02:07:19.510Z,1010.31
2023-05-11T02:08:19.530Z,1010.31
2023-05-11T02:09:19.495Z,1010.32
2023-05-11T02:10:19.653Z,1010.31
2023-05-11T02:11:19.482Z,1010.32
2023-05-11T02:12:19.478Z,1010.31
2023-05-11T02:13:19.482Z,1010.29
2023-05-11T02:14:19.462Z,1010.29
2023-05-11T02:15:19.468Z,1010.31
2023-05-11T02:16:19.481Z,1010.34
2023-05-11T02:17:19.441Z,1010.36
2023-05-11T02:18:19.466Z,1010.40
2023-05-11T02:19:19.426Z,1010.41
2023-05-11T02:20:19.624Z,1010.42
2023-05-11T02:21:19.415Z,1010.36
2023-05-11T02:22:19.403Z,1010.39
2023-05-11T02:23:19.400Z,1010.43
2023-05-11T02:24:19.401Z,1010.42
2023-05-11T02:25:19.389Z,1010.41
2023-05-11T02:26:19.378Z,1010.41
2023-05-11T02:27:19.373Z,1010.40
2023-05-11T02:28:19.370Z,1010.37
2023-05-11T02:29:19.367Z,1010.38
2023-05-11T02:30:19.538Z,1010.37
2023-05-11T02:31:19.397Z,1010.37
2023-05-11T02:32:19.335Z,1010.37
2023-05-11T02:33:19.326Z,1010.36
2023-05-11T02:34:19.328Z,1010.35
2023-05-11T02:35:19.314Z,1010.37
2023-05-11T02:36:19.306Z,1010.37
2023-05-11T02:37:19.299Z,1010.36
2023-05-11T02:38:19.291Z,1010.41
2023-05-11T02:39:19.281Z,1010.42
2023-05-11T02:40:19.510Z,1010.44
2023-05-11T02:41:19.278Z,1010.43
2023-05-11T02:42:19.272Z,1010.41
2023-05-11T02:43:19.254Z,1010.48
2023-05-11T02:44:19.248Z,1010.41
2023-05-11T02:45:19.240Z,1010.42
2023-05-11T02:46:19.281Z,1010.43
2023-05-11T02:47:19.229Z,1010.40
2023-05-11T02:48:19.223Z,1010.39
2023-05-11T02:49:19.211Z,1010.43
2023-05-11T02:50:19.356Z,1010.47
2023-05-11T02:51:19.216Z,1010.47
2023-05-11T02:52:19.190Z,1010.48
2023-05-11T02:53:19.187Z,1010.48
2023-05-11T02:54:19.177Z,1010.48
2023-05-11T02:55:19.165Z,1010.47
2023-05-11T02:56:19.154Z,1010.46
2023-05-11T02:57:19.153Z,1010.44
2023-05-11T02:58:19.238Z,1010.47
2023-05-11T02:59:19.131Z,1010.45
2023-05-11T03:00:19.320Z,1010.45
2023-05-11T03:01:19.190Z,1010.48
2023-05-11T03:02:19.224Z,1010.48
2023-05-11T03:03:19.197Z,1010.42
2023-05-11T03:04:19.098Z,1010.48
2023-05-11T03:05:19.094Z,1010.44
2023-05-11T03:06:19.086Z,1010.44
2023-05-11T03:07:19.076Z,1010.46
2023-05-11T03:08:19.066Z,1010.45
2023-05-11T03:09:19.059Z,1010.50
2023-05-11T03:10:19.250Z,1010.46
2023-05-11T03:11:19.049Z,1010.47
2023-05-11T03:12:19.039Z,1010.46
2023-05-11T03:13:19.033Z,1010.50
2023-05-11T03:14:19.020Z,1010.48
2023-05-11T03:15:19.014Z,1010.48
2023-05-11T03:16:21.026Z,1010.50
2023-05-11T03:17:19.005Z,1010.47
2023-05-11T03:18:19.021Z,1010.46
2023-05-11T03:19:18.987Z,1010.48
2023-05-11T03:20:19.161Z,1010.46
2023-05-11T03:21:18.970Z,1010.42
2023-05-11T03:22:18.968Z,1010.42
2023-05-11T03:23:18.959Z,1010.40
2023-05-11T03:24:18.958Z,1010.39
2023-05-11T03:25:18.944Z,1010.40
2023-05-11T03:26:18.947Z,1010.38
2023-05-11T03:27:18.930Z,1010.38
2023-05-11T03:28:18.923Z,1010.43
2023-05-11T03:29:18.917Z,1010.41
2023-05-11T03:30:19.240Z,1010.39
2023-05-11T03:31:18.904Z,1010.43
2023-05-11T03:32:18.922Z,1010.39
2023-05-11T03:33:18.888Z,1010.39
2023-05-11T03:34:18.877Z,1010.40
2023-05-11T03:35:18.875Z,1010.37
2023-05-11T03:36:18.868Z,1010.41
2023-05-11T03:37:18.856Z,1010.40
2023-05-11T03:38:18.851Z,1010.40
2023-05-11T03:39:18.839Z,1010.44
2023-05-11T03:40:18.965Z,1010.43
2023-05-11T03:41:18.825Z,1010.40
2023-05-11T03:42:18.816Z,1010.43
2023-05-11T03:43:18.812Z,1010.46
2023-05-11T03:44:18.815Z,1010.47
2023-05-11T03:45:18.798Z,1010.48
2023-05-11T03:46:18.866Z,1010.47
2023-05-11T03:47:18.801Z,1010.52
2023-05-11T03:48:18.791Z,1010.50
2023-05-11T03:49:18.773Z,1010.50
2023-05-11T03:50:18.913Z,1010.52
2023-05-11T03:51:18.750Z,1010.50
2023-05-11T03:52:18.747Z,1010.52
2023-05-11T03:53:18.737Z,1010.49
2023-05-11T03:54:18.726Z,1010.48
2023-05-11T03:55:18.723Z,1010.46
2023-05-11T03:56:18.709Z,1010.49
2023-05-11T03:57:18.727Z,1010.48
2023-05-11T03:58:18.696Z,1010.49
2023-05-11T03:59:18.692Z,1010.53
2023-05-11T04:00:18.887Z,1010.50
2023-05-11T04:01:18.708Z,1010.51
2023-05-11T04:02:18.679Z,1010.53
2023-05-11T04:03:18.772Z,1010.50
2023-05-11T04:04:18.704Z,1010.48
2023-05-11T04:05:18.649Z,1010.45
2023-05-11T04:06:18.640Z,1010.51
2023-05-11T04:07:18.640Z,1010.52
2023-05-11T04:08:18.618Z,1010.53
2023-05-11T04:09:18.614Z,1010.49
2023-05-11T04:10:18.858Z,1010.51
2023-05-11T04:11:18.599Z,1010.53
2023-05-11T04:12:18.590Z,1010.51
2023-05-11T04:13:18.578Z,1010.48
2023-05-11T04:14:18.592Z,1010.51
2023-05-11T04:15:18.568Z,1010.52
2023-05-11T04:16:18.668Z,1010.52
2023-05-11T04:17:18.552Z,1010.53
2023-05-11T04:18:18.570Z,1010.55
2023-05-11T04:19:18.923Z,1010.56
2023-05-11T04:20:18.815Z,1010.52
2023-05-11T04:21:18.522Z,1010.50
2023-05-11T04:22:18.514Z,1010.55
2023-05-11T04:23:18.507Z,1010.50
2023-05-11T04:24:18.502Z,1010.50
2023-05-11T04:25:18.507Z,1010.55
2023-05-11T04:26:18.485Z,1010.56
2023-05-11T04:27:18.484Z,1010.60
2023-05-11T04:28:18.476Z,1010.60
2023-05-11T04:29:18.470Z,1010.62
2023-05-11T04:30:18.670Z,1010.66
2023-05-11T04:31:18.469Z,1010.65
2023-05-11T04:32:18.450Z,1010.67
2023-05-11T04:33:18.443Z,1010.66
2023-05-11T04:34:18.432Z,1010.68
2023-05-11T04:35:18.441Z,1010.65
2023-05-11T04:36:18.413Z,1010.63
2023-05-11T04:37:18.407Z,1010.73
2023-05-11T04:38:18.405Z,1010.71
2023-05-11T04:39:18.392Z,1010.71
2023-05-11T04:40:18.588Z,1010.69
2023-05-11T04:41:18.379Z,1010.69
2023-05-11T04:42:18.381Z,1010.71
2023-05-11T04:43:18.369Z,1010.73
2023-05-11T04:44:18.365Z,1010.76
2023-05-11T04:45:18.358Z,1010.75
2023-05-11T04:46:18.770Z,1010.73
2023-05-11T04:47:18.341Z,1010.74
2023-05-11T04:48:20.550Z,1010.71
2023-05-11T04:49:18.328Z,1010.72
2023-05-11T04:50:18.554Z,1010.78
2023-05-11T04:51:18.316Z,1010.74
2023-05-11T04:52:18.309Z,1010.79
2023-05-11T04:53:18.321Z,1010.77
2023-05-11T04:54:18.312Z,1010.80
2023-05-11T04:55:18.292Z,1010.82
2023-05-11T04:56:18.289Z,1010.82
2023-05-11T04:57:18.329Z,1010.83
2023-05-11T04:58:18.278Z,1010.82
2023-05-11T04:59:18.266Z,1010.85
2023-05-11T05:00:18.470Z,1010.84
2023-05-11T05:01:18.274Z,1010.87
2023-05-11T05:02:18.249Z,1010.88
2023-05-11T05:03:18.308Z,1010.89
2023-05-11T05:04:18.284Z,1010.91
2023-05-11T05:05:18.248Z,1010.89
2023-05-11T05:06:18.230Z,1010.92
2023-05-11T05:07:18.224Z,1010.96
2023-05-11T05:08:18.223Z,1010.90
2023-05-11T05:09:18.224Z,1010.92
2023-05-11T05:10:18.415Z,1010.91
2023-05-11T05:11:18.204Z,1010.91
2023-05-11T05:12:18.198Z,1010.97
2023-05-11T05:13:18.196Z,1010.92
2023-05-11T05:14:18.182Z,1010.96
2023-05-11T05:15:18.205Z,1010.94
2023-05-11T05:16:18.250Z,1010.96
2023-05-11T05:17:18.177Z,1010.90
2023-05-11T05:18:18.206Z,1010.93
2023-05-11T05:19:18.164Z,1010.90
2023-05-11T05:20:18.388Z,1010.91
2023-05-11T05:21:18.164Z,1010.90
2023-05-11T05:22:18.157Z,1010.92
2023-05-11T05:23:18.157Z,1010.93
2023-05-11T05:24:18.150Z,1010.91
2023-05-11T05:25:18.145Z,1010.87
2023-05-11T05:26:18.135Z,1010.89
2023-05-11T05:27:18.137Z,1010.93
2023-05-11T05:28:18.133Z,1010.95
2023-05-11T05:29:18.126Z,1010.90
2023-05-11T05:30:18.343Z,1010.91
2023-05-11T05:31:18.180Z,1010.95
2023-05-11T05:32:18.113Z,1010.96
2023-05-11T05:33:18.120Z,1010.96
2023-05-11T05:34:18.104Z,1011.00
2023-05-11T05:35:18.100Z,1010.93
2023-05-11T05:36:18.116Z,1010.95
2023-05-11T05:37:18.100Z,1010.96
2023-05-11T05:38:18.098Z,1010.95
2023-05-11T05:39:18.088Z,1010.94
2023-05-11T05:40:18.367Z,1010.97
2023-05-11T05:41:18.090Z,1010.98
2023-05-11T05:42:18.087Z,1010.99
2023-05-11T05:43:18.078Z,1011.01
2023-05-11T05:44:18.095Z,1011.02
2023-05-11T05:45:18.099Z,1010.99
2023-05-11T05:46:18.111Z,1011.03
2023-05-11T05:47:18.095Z,1011.05
2023-05-11T05:48:18.096Z,1011.05
2023-05-11T05:49:18.058Z,1011.07
2023-05-11T05:50:18.191Z,1011.09
2023-05-11T05:51:18.060Z,1011.05
2023-05-11T05:52:18.050Z,1011.08
2023-05-11T05:53:18.052Z,1011.09
2023-05-11T05:54:18.049Z,1011.11
2023-05-11T05:55:18.043Z,1011.15
2023-05-11T05:56:18.045Z,1011.13
2023-05-11T05:57:18.038Z,1011.13
2023-05-11T05:58:18.041Z,1011.23
2023-05-11T05:59:18.034Z,1011.22
2023-05-11T06:00:18.209Z,1011.21
2023-05-11T06:01:18.078Z,1011.21
2023-05-11T06:02:18.055Z,1011.18
2023-05-11T06:03:18.186Z,1011.18
2023-05-11T06:04:18.128Z,1011.17
2023-05-11T06:05:18.024Z,1011.20
2023-05-11T06:06:18.023Z,1011.23
2023-05-11T06:07:18.022Z,1011.26
2023-05-11T06:08:18.025Z,1011.25
2023-05-11T06:09:18.068Z,1011.26
2023-05-11T06:10:18.186Z,1011.29
2023-05-11T06:11:18.019Z,1011.26
2023-05-11T06:12:18.017Z,1011.28
2023-05-11T06:13:18.013Z,1011.24
2023-05-11T06:14:18.015Z,1011.27
2023-05-11T06:15:18.015Z,1011.26
2023-05-11T06:16:18.100Z,1011.22
2023-05-11T06:17:18.017Z,1011.24
2023-05-11T06:18:18.073Z,1011.26
2023-05-11T06:19:18.022Z,1011.25
2023-05-11T06:20:18.225Z,1011.29
2023-05-11T06:21:18.012Z,1011.25
2023-05-11T06:22:18.012Z,1011.24
2023-05-11T06:23:18.012Z,1011.26
2023-05-11T06:24:18.013Z,1011.30
2023-05-11T06:25:18.009Z,1011.27
2023-05-11T06:26:18.008Z,1011.28
2023-05-11T06:27:18.324Z,1011.25
2023-05-11T06:28:18.013Z,1011.24
2023-05-11T06:29:18.012Z,1011.23
2023-05-11T06:30:18.178Z,1011.27
2023-05-11T06:31:18.033Z,1011.27
2023-05-11T06:32:18.013Z,1011.29
2023-05-11T06:33:18.017Z,1011.25
2023-05-11T06:34:18.015Z,1011.31
2023-05-11T06:35:18.019Z,1011.29
2023-05-11T06:36:18.029Z,1011.26
2023-05-11T06:37:18.029Z,1011.30
2023-05-11T06:38:18.026Z,1011.32
2023-05-11T06:39:18.020Z,1011.31
2023-05-11T06:40:18.154Z,1011.31
2023-05-11T06:41:18.027Z,1011.35
2023-05-11T06:42:18.029Z,1011.34
2023-05-11T06:43:18.029Z,1011.32
2023-05-11T06:44:18.030Z,1011.30
2023-05-11T06:45:18.055Z,1011.32
2023-05-11T06:46:18.185Z,1011.33
2023-05-11T06:47:18.053Z,1011.28
2023-05-11T06:48:18.031Z,1011.32
2023-05-11T06:49:18.042Z,1011.36
2023-05-11T06:50:20.919Z,1011.34
2023-05-11T06:51:18.040Z,1011.33
2023-05-11T06:52:18.040Z,1011.30
2023-05-11T06:53:18.141Z,1011.29
2023-05-11T06:54:18.049Z,1011.30
2023-05-11T06:55:18.045Z,1011.31
2023-05-11T06:56:18.055Z,1011.31
2023-05-11T06:57:18.051Z,1011.28
2023-05-11T06:58:18.060Z,1011.26
2023-05-11T06:59:18.062Z,1011.31
2023-05-11T07:00:18.216Z,1011.28
2023-05-11T07:01:18.115Z,1011.28
2023-05-11T07:02:18.061Z,1011.29
2023-05-11T07:03:18.097Z,1011.30
2023-05-11T07:04:18.097Z,1011.34
2023-05-11T07:05:18.075Z,1011.32
2023-05-11T07:06:18.072Z,1011.35
2023-05-11T07:07:18.072Z,1011.33
2023-05-11T07:08:18.078Z,1011.34
2023-05-11T07:09:18.084Z,1011.35
2023-05-11T07:10:18.210Z,1011.35
2023-05-11T07:11:18.102Z,1011.34
2023-05-11T07:12:18.084Z,1011.36
2023-05-11T07:13:18.089Z,1011.40
2023-05-11T07:14:18.112Z,1011.38
2023-05-11T07:15:18.091Z,1011.40
2023-05-11T07:16:18.158Z,1011.37
2023-05-11T07:17:18.098Z,1011.41
2023-05-11T07:18:18.150Z,1011.41
2023-05-11T07:19:18.113Z,1011.40
2023-05-11T07:20:18.502Z,1011.41
2023-05-11T07:21:18.111Z,1011.41
2023-05-11T07:22:18.113Z,1011.38
2023-05-11T07:23:18.128Z,1011.43
2023-05-11T07:24:18.121Z,1011.42
2023-05-11T07:25:18.120Z,1011.42
2023-05-11T07:26:18.124Z,1011.42
2023-05-11T07:27:18.127Z,1011.45
2023-05-11T07:28:18.139Z,1011.43
2023-05-11T07:29:18.136Z,1011.40
2023-05-11T07:30:18.956Z,1011.44
2023-05-11T07:31:18.146Z,1011.43
2023-05-11T07:32:18.149Z,1011.46
2023-05-11T07:33:18.155Z,1011.45
2023-05-11T07:34:18.156Z,1011.44
2023-05-11T07:35:18.155Z,1011.45
2023-05-11T07:36:18.157Z,1011.46
2023-05-11T07:37:18.167Z,1011.45
2023-05-11T07:38:18.163Z,1011.41
2023-05-11T07:39:18.166Z,1011.42
2023-05-11T07:40:18.343Z,1011.43
2023-05-11T07:41:18.178Z,1011.39
2023-05-11T07:42:18.185Z,1011.39
2023-05-11T07:43:18.181Z,1011.44
2023-05-11T07:44:18.196Z,1011.42
2023-05-11T07:45:18.192Z,1011.43
2023-05-11T07:46:18.246Z,1011.52
2023-05-11T07:47:18.197Z,1011.46
2023-05-11T07:48:18.201Z,1011.44
2023-05-11T07:49:22.994Z,1011.42
2023-05-11T07:50:18.546Z,1011.42
2023-05-11T07:51:18.210Z,1011.39
2023-05-11T07:52:18.218Z,1011.39
2023-05-11T07:53:18.279Z,1011.41
2023-05-11T07:54:19.583Z,1011.43
2023-05-11T07:55:18.339Z,1011.40
2023-05-11T07:56:18.231Z,1011.39
2023-05-11T07:57:18.241Z,1011.38
2023-05-11T07:58:18.240Z,1011.43
2023-05-11T07:59:18.246Z,1011.41
2023-05-11T08:00:18.407Z,1011.39
2023-05-11T08:01:18.253Z,1011.41
2023-05-11T08:02:18.271Z,1011.39
2023-05-11T08:03:18.371Z,1011.42
2023-05-11T08:04:18.274Z,1011.40
2023-05-11T08:06:18.335Z,1011.41
2023-05-11T08:07:18.280Z,1011.42
2023-05-11T08:08:18.288Z,1011.44
2023-05-11T08:09:18.291Z,1011.44
2023-05-11T08:10:18.294Z,1011.41
2023-05-11T08:11:18.305Z,1011.38
2023-05-11T08:12:18.328Z,1011.35
2023-05-11T08:13:18.309Z,1011.24
2023-05-11T08:14:18.317Z,1011.21
2023-05-11T08:15:18.450Z,1011.30
2023-05-11T08:16:18.337Z,1011.25
2023-05-11T08:17:18.333Z,1011.22
2023-05-11T08:18:18.382Z,1011.23
2023-05-11T08:19:18.338Z,1011.19
2023-05-11T08:20:18.368Z,1011.18
2023-05-11T08:21:18.341Z,1011.21
2023-05-11T08:22:18.346Z,1011.23
2023-05-11T08:23:18.378Z,1011.22
2023-05-11T08:24:18.348Z,1011.26
2023-05-11T08:25:18.527Z,1011.23
2023-05-11T08:26:18.353Z,1011.20
2023-05-11T08:27:18.354Z,1011.25
2023-05-11T08:28:18.352Z,1011.23
2023-05-11T08:29:18.356Z,1011.24
2023-05-11T08:30:18.357Z,1011.24
2023-05-11T08:31:18.388Z,1011.22
2023-05-11T08:32:18.428Z,1011.22
2023-05-11T08:34:20.105Z,1011.19
2023-05-11T08:35:18.558Z,1011.19
2023-05-11T08:36:18.362Z,1011.21
2023-05-11T08:37:18.364Z,1011.18
2023-05-11T08:38:18.363Z,1011.16
2023-05-11T08:39:28.525Z,1011.19
2023-05-11T08:40:18.367Z,1011.17
2023-05-11T08:41:18.369Z,1011.14
2023-05-11T08:42:18.369Z,1011.14
2023-05-11T08:43:18.375Z,1011.16
2023-05-11T08:44:18.366Z,1011.18
2023-05-11T08:45:18.526Z,1011.21
2023-05-11T08:46:18.376Z,1011.14
2023-05-11T08:47:23.318Z,1011.19
2023-05-11T08:48:18.366Z,1011.23
2023-05-11T08:49:18.370Z,1011.24
2023-05-11T08:50:18.390Z,1011.35
2023-05-11T08:51:18.382Z,1011.36
2023-05-11T08:52:18.395Z,1011.41
2023-05-11T08:53:18.371Z,1011.41
2023-05-11T08:54:18.368Z,1011.42
2023-05-11T08:55:18.528Z,1011.38
2023-05-11T08:56:18.370Z,1011.37
2023-05-11T08:57:18.390Z,1011.26
2023-05-11T08:58:18.373Z,1011.21
2023-05-11T08:59:18.368Z,1011.17
2023-05-11T09:00:18.384Z,1011.14
2023-05-11T09:01:18.419Z,1011.10
2023-05-11T09:02:18.370Z,1011.11
2023-05-11T09:03:18.382Z,1011.12
2023-05-11T09:04:18.371Z,1011.13
2023-05-11T09:05:18.544Z,1011.10
2023-05-11T09:06:18.374Z,1011.09
2023-05-11T09:07:18.494Z,1011.14
2023-05-11T09:08:18.975Z,1011.11
2023-05-11T09:09:18.381Z,1011.05
2023-05-11T09:10:18.391Z,1011.13
2023-05-11T09:11:18.391Z,1011.13
2023-05-11T09:12:18.385Z,1011.06
2023-05-11T09:13:18.380Z,1011.04
2023-05-11T09:14:18.377Z,1011.10
2023-05-11T09:15:18.664Z,1011.03
2023-05-11T09:16:35.749Z,1011.05
2023-05-11T09:17:18.381Z,1011.12
2023-05-11T09:18:18.420Z,1011.04
2023-05-11T09:19:18.384Z,1011.03
2023-05-11T09:20:18.513Z,1011.02
2023-05-11T09:21:18.491Z,1011.08
2023-05-11T09:22:18.384Z,1011.08
2023-05-11T09:23:18.382Z,1011.08
2023-05-11T09:24:18.380Z,1011.09
2023-05-11T09:25:18.641Z,1011.05
2023-05-11T09:26:18.379Z,1011.05
2023-05-11T09:27:21.270Z,1011.05
2023-05-11T09:29:18.398Z,1011.09
2023-05-11T09:31:18.439Z,1011.13
2023-05-11T09:32:18.383Z,1011.13
2023-05-11T09:33:18.380Z,1011.10
2023-05-11T09:34:18.381Z,1011.02
2023-05-11T09:35:18.545Z,1011.02
2023-05-11T09:36:18.378Z,1011.05
2023-05-11T09:37:18.404Z,1011.09
2023-05-11T09:38:18.373Z,1011.05
2023-05-11T09:41:18.379Z,1011.09
2023-05-11T09:42:18.386Z,1011.03
2023-05-11T09:43:18.404Z,1011.08
2023-05-11T09:44:18.379Z,1011.02
2023-05-11T09:45:18.541Z,1011.06
2023-05-11T09:46:18.371Z,1011.01
2023-05-11T09:47:18.372Z,1011.06
2023-05-11T09:48:18.379Z,1011.02
2023-05-11T09:49:18.371Z,1010.98
2023-05-11T09:50:18.876Z,1011.05
2023-05-11T09:51:18.369Z,1010.95
2023-05-11T09:52:18.403Z,1010.98
2023-05-11T09:53:18.376Z,1010.97
2023-05-11T09:54:18.366Z,1010.99
2023-05-11T09:55:18.567Z,1010.96
2023-05-11T09:56:18.367Z,1011.00
2023-05-11T09:57:18.364Z,1010.97
2023-05-11T09:58:18.360Z,1011.01
2023-05-11T09:59:18.366Z,1011.00
2023-05-11T10:00:18.363Z,1011.06
2023-05-11T10:01:18.446Z,1011.04
2023-05-11T10:02:18.398Z,1011.00
2023-05-11T10:03:18.495Z,1011.03
2023-05-11T10:04:23.719Z,1011.01
2023-05-11T10:05:18.485Z,1011.01
2023-05-11T10:06:20.325Z,1010.96
2023-05-11T10:07:18.357Z,1011.01
2023-05-11T10:08:18.354Z,1010.99
2023-05-11T10:09:18.361Z,1010.94
2023-05-11T10:10:18.353Z,1010.95
2023-05-11T10:11:18.357Z,1010.96
2023-05-11T10:12:18.361Z,1011.00
2023-05-11T10:13:18.352Z,1010.98
2023-05-11T10:14:18.405Z,1010.95
2023-05-11T10:15:18.560Z,1010.98
2023-05-11T10:16:18.389Z,1010.91
2023-05-11T10:17:18.354Z,1011.01
2023-05-11T10:18:20.120Z,1010.99
2023-05-11T10:19:18.351Z,1010.97
2023-05-11T10:20:18.511Z,1011.00
2023-05-11T10:21:18.351Z,1010.93
2023-05-11T10:22:18.366Z,1010.91
2023-05-11T10:23:18.347Z,1010.99
2023-05-11T10:24:20.508Z,1010.99
2023-05-11T10:25:18.347Z,1010.94
2023-05-11T10:26:18.345Z,1010.91
2023-05-11T10:27:18.350Z,1010.91
2023-05-11T10:28:18.350Z,1010.89
2023-05-11T10:29:18.352Z,1010.80
2023-05-11T10:30:18.606Z,1010.87
2023-05-11T10:31:18.452Z,1010.87
2023-05-11T10:32:18.343Z,1010.84
2023-05-11T10:33:18.349Z,1010.84
2023-05-11T10:34:18.343Z,1010.85
2023-05-11T10:35:18.343Z,1010.90
2023-05-11T10:36:19.431Z,1010.86
2023-05-11T10:37:18.342Z,1010.86
2023-05-11T10:38:18.345Z,1010.84
2023-05-11T10:39:18.341Z,1010.76
2023-05-11T10:40:18.495Z,1010.80
2023-05-11T10:41:18.341Z,1010.86
2023-05-11T10:42:18.344Z,1010.89
2023-05-11T10:43:18.340Z,1010.89
2023-05-11T10:44:18.341Z,1010.86
2023-05-11T10:45:18.341Z,1010.91
2023-05-11T10:46:18.400Z,1010.88
2023-05-11T10:47:18.362Z,1010.87
2023-05-11T10:48:18.341Z,1010.84
2023-05-11T10:49:18.342Z,1010.81
2023-05-11T10:50:18.512Z,1010.83
2023-05-11T10:51:18.341Z,1010.79
2023-05-11T10:52:18.339Z,1010.81
2023-05-11T10:53:18.354Z,1010.81
2023-05-11T10:54:18.366Z,1010.81
2023-05-11T10:55:18.552Z,1010.84
2023-05-11T10:56:18.339Z,1010.90
2023-05-11T10:57:18.339Z,1010.88
2023-05-11T10:58:18.340Z,1010.84
2023-05-11T10:59:18.343Z,1010.86
2023-05-11T11:00:18.560Z,1010.85
2023-05-11T11:01:18.394Z,1010.80
2023-05-11T11:02:18.345Z,1010.80
2023-05-11T11:03:18.364Z,1010.82
2023-05-11T11:04:18.364Z,1010.79
2023-05-11T11:05:18.432Z,1010.78
2023-05-11T11:06:18.347Z,1010.79
2023-05-11T11:07:18.440Z,1010.88
2023-05-11T11:08:18.346Z,1010.83
2023-05-11T11:09:18.348Z,1010.92
2023-05-11T11:10:18.509Z,1010.84
2023-05-11T11:11:18.348Z,1010.84
2023-05-11T11:12:18.349Z,1010.88
2023-05-11T11:13:18.356Z,1010.85
2023-05-11T11:14:18.349Z,1010.84
2023-05-11T11:15:18.550Z,1010.85
2023-05-11T11:16:18.351Z,1010.91
2023-05-11T11:17:18.414Z,1010.89
2023-05-11T11:18:18.400Z,1010.86
2023-05-11T11:19:18.357Z,1010.84
2023-05-11T11:20:18.353Z,1010.88
2023-05-11T11:21:18.358Z,1010.88
2023-05-11T11:22:18.354Z,1010.90
2023-05-11T11:23:18.355Z,1010.87
2023-05-11T11:24:18.358Z,1010.90
2023-05-11T11:25:18.574Z,1010.84
2023-05-11T11:26:18.355Z,1010.81
2023-05-11T11:27:18.359Z,1010.84
2023-05-11T11:28:18.360Z,1010.88
2023-05-11T11:29:18.545Z,1010.86
2023-05-11T11:30:18.359Z,1010.89
2023-05-11T11:31:18.426Z,1010.85
2023-05-11T11:32:18.360Z,1010.82
2023-05-11T11:33:18.407Z,1010.82
2023-05-11T11:34:18.544Z,1010.81
2023-05-11T11:35:18.588Z,1010.83
2023-05-11T11:36:18.362Z,1010.84
2023-05-11T11:37:18.364Z,1010.85
2023-05-11T11:38:18.361Z,1010.85
2023-05-11T11:39:18.547Z,1010.83
2023-05-11T11:40:18.451Z,1010.87
2023-05-11T11:41:18.366Z,1010.87
2023-05-11T11:42:18.366Z,1010.85
2023-05-11T11:43:18.367Z,1010.86
2023-05-11T11:44:18.370Z,1010.86
2023-05-11T11:45:18.541Z,1010.92
2023-05-11T11:46:18.391Z,1010.86
2023-05-11T11:47:18.366Z,1010.88
2023-05-11T11:48:18.370Z,1010.87
2023-05-11T11:49:18.370Z,1010.90
2023-05-11T11:50:18.372Z,1010.86
2023-05-11T11:51:18.385Z,1010.93
2023-05-11T11:52:18.371Z,1010.94
2023-05-11T11:53:18.390Z,1010.94
2023-05-11T11:54:18.374Z,1010.94
2023-05-11T11:55:18.594Z,1010.94
2023-05-11T11:56:18.373Z,1010.95
2023-05-11T11:57:18.372Z,1010.97
2023-05-11T11:58:18.405Z,1010.92
2023-05-11T11:59:18.371Z,1010.91
2023-05-11T12:00:18.372Z,1010.99
2023-05-11T12:01:18.382Z,1010.93
2023-05-11T12:02:18.374Z,1010.92
2023-05-11T12:03:18.424Z,1010.93
2023-05-11T12:04:18.574Z,1010.97
2023-05-11T12:05:18.978Z,1010.97
2023-05-11T12:06:18.373Z,1010.92
2023-05-11T12:07:18.396Z,1010.96
2023-05-11T12:08:18.385Z,1010.97
2023-05-11T12:09:18.438Z,1011.03
2023-05-11T12:10:18.407Z,1010.97
2023-05-11T12:11:18.370Z,1011.00